sensor_id;sensor_type;location;lat;lon;timestamp;temperature;humidity
10051;DHT22;5065;46.942;7.432;2022-08-21T00:01:12;19.80;99.90
10051;DHT22;5065;46.942;7.432;2022-08-21T00:03:40;19.80;99.90
10051;DHT22;5065;46.942;7.432;2022-08-21T00:06:07;19.80;99.90
10051;DHT22;5065;46.942;7.432;2022-08-21T00:08:35;19.80;99.90
10051;DHT22;5065;46.942;7.432;2022-08-21T00:11:03;19.80;99.90
10051;DHT22;5065;46.942;7.432;2022-08-21T00:13:30;19.80;99.90
10051;DHT22;5065;46.942;7.432;2022-08-21T00:15:58;19.80;99.90
10051;DHT22;5065;46.942;7.432;2022-08-21T00:18:25;19.90;99.90
10051;DHT22;5065;46.942;7.432;2022-08-21T00:20:52;19.90;99.90
10051;DHT22;5065;46.942;7.432;2022-08-21T00:23:19;19.90;99.90
10051;DHT22;5065;46.942;7.432;2022-08-21T00:25:46;19.90;99.90
10051;DHT22;5065;46.942;7.432;2022-08-21T00:28:14;19.90;99.90
10051;DHT22;5065;46.942;7.432;2022-08-21T00:30:42;19.90;99.90
10051;DHT22;5065;46.942;7.432;2022-08-21T00:33:09;19.90;99.90
10051;DHT22;5065;46.942;7.432;2022-08-21T00:35:37;19.90;99.90
10051;DHT22;5065;46.942;7.432;2022-08-21T00:38:06;19.90;99.90
10051;DHT22;5065;46.942;7.432;2022-08-21T00:40:35;19.90;99.90
10051;DHT22;5065;46.942;7.432;2022-08-21T00:43:04;19.90;99.90
10051;DHT22;5065;46.942;7.432;2022-08-21T00:45:33;19.90;99.90
10051;DHT22;5065;46.942;7.432;2022-08-21T00:48:01;19.90;99.90
10051;DHT22;5065;46.942;7.432;2022-08-21T00:50:29;19.80;99.90
10051;DHT22;5065;46.942;7.432;2022-08-21T00:52:57;19.80;99.90
10051;DHT22;5065;46.942;7.432;2022-08-21T00:55:25;19.80;99.90
10051;DHT22;5065;46.942;7.432;2022-08-21T00:57:52;19.80;99.90
10051;DHT22;5065;46.942;7.432;2022-08-21T01:00:22;19.80;99.90
10051;DHT22;5065;46.942;7.432;2022-08-21T01:02:50;19.80;99.90
10051;DHT22;5065;46.942;7.432;2022-08-21T01:05:17;19.80;99.90
10051;DHT22;5065;46.942;7.432;2022-08-21T01:07:45;19.80;99.90
10051;DHT22;5065;46.942;7.432;2022-08-21T01:10:12;19.70;99.90
10051;DHT22;5065;46.942;7.432;2022-08-21T01:12:40;19.70;99.90
10051;DHT22;5065;46.942;7.432;2022-08-21T01:15:08;19.70;99.90
10051;DHT22;5065;46.942;7.432;2022-08-21T01:17:37;19.70;99.90
10051;DHT22;5065;46.942;7.432;2022-08-21T01:20:08;19.70;99.90
10051;DHT22;5065;46.942;7.432;2022-08-21T01:22:38;19.70;99.90
10051;DHT22;5065;46.942;7.432;2022-08-21T01:25:07;19.70;99.90
10051;DHT22;5065;46.942;7.432;2022-08-21T01:27:34;19.70;99.90
10051;DHT22;5065;46.942;7.432;2022-08-21T01:30:08;19.70;99.90
10051;DHT22;5065;46.942;7.432;2022-08-21T01:32:36;19.70;99.90
10051;DHT22;5065;46.942;7.432;2022-08-21T01:35:04;19.70;99.90
10051;DHT22;5065;46.942;7.432;2022-08-21T01:37:32;19.70;99.90
10051;DHT22;5065;46.942;7.432;2022-08-21T01:40:02;19.70;99.90
10051;DHT22;5065;46.942;7.432;2022-08-21T01:42:29;19.60;99.90
10051;DHT22;5065;46.942;7.432;2022-08-21T01:44:57;19.50;99.90
10051;DHT22;5065;46.942;7.432;2022-08-21T01:47:24;19.50;99.90
10051;DHT22;5065;46.942;7.432;2022-08-21T01:49:52;19.40;99.90
10051;DHT22;5065;46.942;7.432;2022-08-21T01:52:19;19.40;99.90
10051;DHT22;5065;46.942;7.432;2022-08-21T01:54:47;19.40;99.90
10051;DHT22;5065;46.942;7.432;2022-08-21T01:57:16;19.40;99.90
10051;DHT22;5065;46.942;7.432;2022-08-21T01:59:43;19.30;99.90
10051;DHT22;5065;46.942;7.432;2022-08-21T02:02:11;19.30;99.90
10051;DHT22;5065;46.942;7.432;2022-08-21T02:04:38;19.30;99.90
10051;DHT22;5065;46.942;7.432;2022-08-21T02:07:05;19.30;99.90
10051;DHT22;5065;46.942;7.432;2022-08-21T02:09:33;19.20;99.90
10051;DHT22;5065;46.942;7.432;2022-08-21T02:12:00;19.20;99.90
10051;DHT22;5065;46.942;7.432;2022-08-21T02:14:29;19.20;99.90
10051;DHT22;5065;46.942;7.432;2022-08-21T02:16:56;19.20;99.90
10051;DHT22;5065;46.942;7.432;2022-08-21T02:19:23;19.20;99.90
10051;DHT22;5065;46.942;7.432;2022-08-21T02:21:52;19.20;99.90
10051;DHT22;5065;46.942;7.432;2022-08-21T02:24:19;19.20;99.90
10051;DHT22;5065;46.942;7.432;2022-08-21T02:26:46;19.30;99.90
10051;DHT22;5065;46.942;7.432;2022-08-21T02:29:13;19.20;99.90
10051;DHT22;5065;46.942;7.432;2022-08-21T02:31:42;19.20;99.90
10051;DHT22;5065;46.942;7.432;2022-08-21T02:34:09;19.10;99.90
10051;DHT22;5065;46.942;7.432;2022-08-21T02:36:36;19.10;99.90
10051;DHT22;5065;46.942;7.432;2022-08-21T02:39:04;19.00;99.90
10051;DHT22;5065;46.942;7.432;2022-08-21T02:41:31;19.00;99.90
10051;DHT22;5065;46.942;7.432;2022-08-21T02:43:58;18.90;99.90
10051;DHT22;5065;46.942;7.432;2022-08-21T02:46:25;18.90;99.90
10051;DHT22;5065;46.942;7.432;2022-08-21T02:48:54;18.80;99.90
10051;DHT22;5065;46.942;7.432;2022-08-21T02:51:21;18.80;99.90
10051;DHT22;5065;46.942;7.432;2022-08-21T02:53:50;18.70;99.90
10051;DHT22;5065;46.942;7.432;2022-08-21T02:56:20;18.70;99.90
10051;DHT22;5065;46.942;7.432;2022-08-21T02:58:49;18.70;99.90
10051;DHT22;5065;46.942;7.432;2022-08-21T03:01:16;18.70;99.90
10051;DHT22;5065;46.942;7.432;2022-08-21T03:03:45;18.70;99.90
10051;DHT22;5065;46.942;7.432;2022-08-21T03:06:19;18.70;99.90
10051;DHT22;5065;46.942;7.432;2022-08-21T03:08:47;18.60;99.90
10051;DHT22;5065;46.942;7.432;2022-08-21T03:11:15;18.60;99.90
10051;DHT22;5065;46.942;7.432;2022-08-21T03:13:43;18.60;99.90
10051;DHT22;5065;46.942;7.432;2022-08-21T03:16:10;18.60;99.90
10051;DHT22;5065;46.942;7.432;2022-08-21T03:18:38;18.60;99.90
10051;DHT22;5065;46.942;7.432;2022-08-21T03:21:05;18.60;99.90
10051;DHT22;5065;46.942;7.432;2022-08-21T03:23:34;18.60;99.90
10051;DHT22;5065;46.942;7.432;2022-08-21T03:26:03;18.60;99.90
10051;DHT22;5065;46.942;7.432;2022-08-21T03:28:30;18.60;99.90
10051;DHT22;5065;46.942;7.432;2022-08-21T03:30:58;18.70;99.90
10051;DHT22;5065;46.942;7.432;2022-08-21T03:33:25;18.70;99.90
10051;DHT22;5065;46.942;7.432;2022-08-21T03:35:58;18.70;99.90
10051;DHT22;5065;46.942;7.432;2022-08-21T03:38:27;18.70;99.90
10051;DHT22;5065;46.942;7.432;2022-08-21T03:40:56;18.70;99.90
10051;DHT22;5065;46.942;7.432;2022-08-21T03:43:23;18.70;99.90
10051;DHT22;5065;46.942;7.432;2022-08-21T03:45:51;18.70;99.90
10051;DHT22;5065;46.942;7.432;2022-08-21T03:48:18;18.70;99.90
10051;DHT22;5065;46.942;7.432;2022-08-21T03:50:46;18.70;99.90
10051;DHT22;5065;46.942;7.432;2022-08-21T03:53:15;18.80;99.90
10051;DHT22;5065;46.942;7.432;2022-08-21T03:55:44;18.70;99.90
10051;DHT22;5065;46.942;7.432;2022-08-21T03:58:13;18.70;99.90
10051;DHT22;5065;46.942;7.432;2022-08-21T04:00:41;18.80;99.90
10051;DHT22;5065;46.942;7.432;2022-08-21T04:03:08;18.80;99.90
10051;DHT22;5065;46.942;7.432;2022-08-21T04:05:35;18.80;99.90
10051;DHT22;5065;46.942;7.432;2022-08-21T04:08:05;18.80;99.90
10051;DHT22;5065;46.942;7.432;2022-08-21T04:10:34;18.80;99.90
10051;DHT22;5065;46.942;7.432;2022-08-21T04:13:03;18.70;99.90
10051;DHT22;5065;46.942;7.432;2022-08-21T04:15:32;18.70;99.90
10051;DHT22;5065;46.942;7.432;2022-08-21T04:18:00;18.70;99.90
10051;DHT22;5065;46.942;7.432;2022-08-21T04:20:27;18.70;99.90
10051;DHT22;5065;46.942;7.432;2022-08-21T04:22:55;18.70;99.90
10051;DHT22;5065;46.942;7.432;2022-08-21T04:25:23;18.70;99.90
10051;DHT22;5065;46.942;7.432;2022-08-21T04:27:51;18.70;99.90
10051;DHT22;5065;46.942;7.432;2022-08-21T04:30:18;18.70;99.90
10051;DHT22;5065;46.942;7.432;2022-08-21T04:32:48;18.60;99.90
10051;DHT22;5065;46.942;7.432;2022-08-21T04:35:18;18.60;99.90
10051;DHT22;5065;46.942;7.432;2022-08-21T04:37:46;18.60;99.90
10051;DHT22;5065;46.942;7.432;2022-08-21T04:40:15;18.70;99.90
10051;DHT22;5065;46.942;7.432;2022-08-21T04:42:45;18.70;99.90
10051;DHT22;5065;46.942;7.432;2022-08-21T04:45:20;18.70;99.90
10051;DHT22;5065;46.942;7.432;2022-08-21T04:47:53;18.70;99.90
10051;DHT22;5065;46.942;7.432;2022-08-21T04:50:22;18.70;99.90
10051;DHT22;5065;46.942;7.432;2022-08-21T04:52:51;18.70;99.90
10051;DHT22;5065;46.942;7.432;2022-08-21T04:55:19;18.70;99.90
10051;DHT22;5065;46.942;7.432;2022-08-21T04:57:48;18.70;99.90
10051;DHT22;5065;46.942;7.432;2022-08-21T05:00:21;18.70;99.90
10051;DHT22;5065;46.942;7.432;2022-08-21T05:02:51;18.70;99.90
10051;DHT22;5065;46.942;7.432;2022-08-21T05:05:22;18.70;99.90
10051;DHT22;5065;46.942;7.432;2022-08-21T05:07:49;18.60;99.90
10051;DHT22;5065;46.942;7.432;2022-08-21T05:10:17;18.60;99.90
10051;DHT22;5065;46.942;7.432;2022-08-21T05:12:45;18.60;99.90
10051;DHT22;5065;46.942;7.432;2022-08-21T05:15:13;18.60;99.90
10051;DHT22;5065;46.942;7.432;2022-08-21T05:17:40;18.60;99.90
10051;DHT22;5065;46.942;7.432;2022-08-21T05:20:11;18.60;99.90
10051;DHT22;5065;46.942;7.432;2022-08-21T05:22:38;18.60;99.90
10051;DHT22;5065;46.942;7.432;2022-08-21T05:25:08;18.60;99.90
10051;DHT22;5065;46.942;7.432;2022-08-21T05:27:35;18.60;99.90
10051;DHT22;5065;46.942;7.432;2022-08-21T05:30:04;18.60;99.90
10051;DHT22;5065;46.942;7.432;2022-08-21T05:32:33;18.60;99.90
10051;DHT22;5065;46.942;7.432;2022-08-21T05:35:01;18.60;99.90
10051;DHT22;5065;46.942;7.432;2022-08-21T05:37:29;18.70;99.90
10051;DHT22;5065;46.942;7.432;2022-08-21T05:39:57;18.70;99.90
10051;DHT22;5065;46.942;7.432;2022-08-21T05:42:24;18.70;99.90
10051;DHT22;5065;46.942;7.432;2022-08-21T05:44:51;18.70;99.90
10051;DHT22;5065;46.942;7.432;2022-08-21T05:47:18;18.70;99.90
10051;DHT22;5065;46.942;7.432;2022-08-21T05:49:45;18.60;99.90
10051;DHT22;5065;46.942;7.432;2022-08-21T05:52:18;18.60;99.90
10051;DHT22;5065;46.942;7.432;2022-08-21T05:54:47;18.50;99.90
10051;DHT22;5065;46.942;7.432;2022-08-21T05:57:14;18.60;99.90
10051;DHT22;5065;46.942;7.432;2022-08-21T05:59:42;18.70;99.90
10051;DHT22;5065;46.942;7.432;2022-08-21T06:02:09;18.70;99.90
10051;DHT22;5065;46.942;7.432;2022-08-21T06:04:37;18.70;99.90
10051;DHT22;5065;46.942;7.432;2022-08-21T06:07:04;18.80;99.90
10051;DHT22;5065;46.942;7.432;2022-08-21T06:09:32;18.80;99.90
10051;DHT22;5065;46.942;7.432;2022-08-21T06:12:04;18.80;99.90
10051;DHT22;5065;46.942;7.432;2022-08-21T06:14:32;18.90;99.90
10051;DHT22;5065;46.942;7.432;2022-08-21T06:17:02;19.00;99.90
10051;DHT22;5065;46.942;7.432;2022-08-21T06:19:29;19.30;99.90
10051;DHT22;5065;46.942;7.432;2022-08-21T06:21:56;19.80;99.90
10051;DHT22;5065;46.942;7.432;2022-08-21T06:24:23;20.30;99.90
10051;DHT22;5065;46.942;7.432;2022-08-21T06:26:50;20.70;99.90
10051;DHT22;5065;46.942;7.432;2022-08-21T06:29:19;21.20;99.90
10051;DHT22;5065;46.942;7.432;2022-08-21T06:31:46;21.50;99.90
10051;DHT22;5065;46.942;7.432;2022-08-21T06:34:13;21.90;99.90
10051;DHT22;5065;46.942;7.432;2022-08-21T06:36:40;22.30;99.90
10051;DHT22;5065;46.942;7.432;2022-08-21T06:39:07;22.60;99.90
10051;DHT22;5065;46.942;7.432;2022-08-21T06:41:38;22.80;99.90
10051;DHT22;5065;46.942;7.432;2022-08-21T06:44:05;22.80;99.90
10051;DHT22;5065;46.942;7.432;2022-08-21T06:46:33;22.70;99.90
10051;DHT22;5065;46.942;7.432;2022-08-21T06:49:01;22.60;99.90
10051;DHT22;5065;46.942;7.432;2022-08-21T06:51:27;22.50;99.90
10051;DHT22;5065;46.942;7.432;2022-08-21T06:53:54;22.40;99.90
10051;DHT22;5065;46.942;7.432;2022-08-21T06:56:21;22.30;99.90
10051;DHT22;5065;46.942;7.432;2022-08-21T06:58:48;22.20;99.90
10051;DHT22;5065;46.942;7.432;2022-08-21T07:01:15;22.10;99.90
10051;DHT22;5065;46.942;7.432;2022-08-21T07:03:43;22.00;99.90
10051;DHT22;5065;46.942;7.432;2022-08-21T07:06:10;21.90;99.90
10051;DHT22;5065;46.942;7.432;2022-08-21T07:08:37;21.90;99.90
10051;DHT22;5065;46.942;7.432;2022-08-21T07:11:07;21.90;99.90
10051;DHT22;5065;46.942;7.432;2022-08-21T07:13:35;21.90;99.90
10051;DHT22;5065;46.942;7.432;2022-08-21T07:16:02;21.90;99.90
10051;DHT22;5065;46.942;7.432;2022-08-21T07:18:29;21.90;99.90
10051;DHT22;5065;46.942;7.432;2022-08-21T07:20:57;21.90;99.90
10051;DHT22;5065;46.942;7.432;2022-08-21T07:23:26;21.90;99.90
10051;DHT22;5065;46.942;7.432;2022-08-21T07:25:53;22.00;99.90
10051;DHT22;5065;46.942;7.432;2022-08-21T07:28:20;22.00;99.90
10051;DHT22;5065;46.942;7.432;2022-08-21T07:30:49;22.10;99.90
10051;DHT22;5065;46.942;7.432;2022-08-21T07:33:17;22.10;99.90
10051;DHT22;5065;46.942;7.432;2022-08-21T07:35:43;22.10;99.90
10051;DHT22;5065;46.942;7.432;2022-08-21T07:38:12;22.20;99.90
10051;DHT22;5065;46.942;7.432;2022-08-21T07:40:39;22.30;99.90
10051;DHT22;5065;46.942;7.432;2022-08-21T07:43:06;22.30;99.90
10051;DHT22;5065;46.942;7.432;2022-08-21T07:45:33;22.40;99.90
10051;DHT22;5065;46.942;7.432;2022-08-21T07:48:00;22.40;99.90
10051;DHT22;5065;46.942;7.432;2022-08-21T07:50:27;22.50;99.90
10051;DHT22;5065;46.942;7.432;2022-08-21T07:52:54;22.60;99.90
10051;DHT22;5065;46.942;7.432;2022-08-21T07:55:22;22.70;99.90
10051;DHT22;5065;46.942;7.432;2022-08-21T07:57:49;22.80;99.90
10051;DHT22;5065;46.942;7.432;2022-08-21T08:00:17;23.00;99.90
10051;DHT22;5065;46.942;7.432;2022-08-21T08:02:45;23.10;99.90
10051;DHT22;5065;46.942;7.432;2022-08-21T08:05:15;23.30;99.90
10051;DHT22;5065;46.942;7.432;2022-08-21T08:07:42;23.40;99.90
10051;DHT22;5065;46.942;7.432;2022-08-21T08:10:09;23.40;99.90
10051;DHT22;5065;46.942;7.432;2022-08-21T08:12:38;23.40;99.90
10051;DHT22;5065;46.942;7.432;2022-08-21T08:15:06;23.40;99.90
10051;DHT22;5065;46.942;7.432;2022-08-21T08:17:33;23.50;99.90
10051;DHT22;5065;46.942;7.432;2022-08-21T08:20:01;23.50;99.90
10051;DHT22;5065;46.942;7.432;2022-08-21T08:22:28;23.60;99.90
10051;DHT22;5065;46.942;7.432;2022-08-21T08:24:55;23.70;99.90
10051;DHT22;5065;46.942;7.432;2022-08-21T08:27:22;23.80;99.90
10051;DHT22;5065;46.942;7.432;2022-08-21T08:29:51;23.90;99.90
10051;DHT22;5065;46.942;7.432;2022-08-21T08:32:18;23.90;99.90
10051;DHT22;5065;46.942;7.432;2022-08-21T08:34:45;24.00;99.90
10051;DHT22;5065;46.942;7.432;2022-08-21T08:37:14;24.10;99.90
10051;DHT22;5065;46.942;7.432;2022-08-21T08:39:41;24.10;99.90
10051;DHT22;5065;46.942;7.432;2022-08-21T08:42:09;24.20;99.90
10051;DHT22;5065;46.942;7.432;2022-08-21T08:44:39;24.30;99.90
10051;DHT22;5065;46.942;7.432;2022-08-21T08:47:08;24.30;99.90
10051;DHT22;5065;46.942;7.432;2022-08-21T08:49:36;24.40;99.90
10051;DHT22;5065;46.942;7.432;2022-08-21T08:52:05;24.40;99.90
10051;DHT22;5065;46.942;7.432;2022-08-21T08:54:34;24.50;99.90
10051;DHT22;5065;46.942;7.432;2022-08-21T08:57:04;24.60;99.90
10051;DHT22;5065;46.942;7.432;2022-08-21T08:59:39;24.70;99.90
10051;DHT22;5065;46.942;7.432;2022-08-21T09:02:08;24.80;99.90
10051;DHT22;5065;46.942;7.432;2022-08-21T09:04:37;24.90;99.90
10051;DHT22;5065;46.942;7.432;2022-08-21T09:07:08;25.00;99.90
10051;DHT22;5065;46.942;7.432;2022-08-21T09:09:47;25.00;99.90
10051;DHT22;5065;46.942;7.432;2022-08-21T09:12:29;25.10;99.90
10051;DHT22;5065;46.942;7.432;2022-08-21T09:14:58;25.20;99.90
10051;DHT22;5065;46.942;7.432;2022-08-21T09:17:33;25.30;99.90
10051;DHT22;5065;46.942;7.432;2022-08-21T09:20:07;25.40;99.90
10051;DHT22;5065;46.942;7.432;2022-08-21T09:22:37;25.50;99.90
10051;DHT22;5065;46.942;7.432;2022-08-21T09:25:08;25.70;99.90
10051;DHT22;5065;46.942;7.432;2022-08-21T09:27:37;25.80;99.90
10051;DHT22;5065;46.942;7.432;2022-08-21T09:30:05;25.90;99.90
10051;DHT22;5065;46.942;7.432;2022-08-21T09:32:35;26.00;99.90
10051;DHT22;5065;46.942;7.432;2022-08-21T09:35:03;26.10;99.90
10051;DHT22;5065;46.942;7.432;2022-08-21T09:37:33;26.20;99.90
10051;DHT22;5065;46.942;7.432;2022-08-21T09:40:01;26.20;99.90
10051;DHT22;5065;46.942;7.432;2022-08-21T09:42:29;26.20;99.90
10051;DHT22;5065;46.942;7.432;2022-08-21T09:45:05;26.10;99.90
10051;DHT22;5065;46.942;7.432;2022-08-21T09:47:32;26.10;99.90
10051;DHT22;5065;46.942;7.432;2022-08-21T09:50:08;26.00;99.90
10051;DHT22;5065;46.942;7.432;2022-08-21T09:52:41;25.90;99.90
10051;DHT22;5065;46.942;7.432;2022-08-21T09:55:08;25.80;99.90
10051;DHT22;5065;46.942;7.432;2022-08-21T09:58:01;26.10;99.90
10051;DHT22;5065;46.942;7.432;2022-08-21T10:00:28;26.50;99.90
10051;DHT22;5065;46.942;7.432;2022-08-21T10:03:07;26.80;99.90
10051;DHT22;5065;46.942;7.432;2022-08-21T10:05:35;27.20;99.90
10051;DHT22;5065;46.942;7.432;2022-08-21T10:08:03;27.50;99.90
10051;DHT22;5065;46.942;7.432;2022-08-21T10:10:32;27.80;99.90
10051;DHT22;5065;46.942;7.432;2022-08-21T10:13:03;27.70;99.90
10051;DHT22;5065;46.942;7.432;2022-08-21T10:15:35;27.40;99.90
10051;DHT22;5065;46.942;7.432;2022-08-21T10:18:07;27.50;99.90
10051;DHT22;5065;46.942;7.432;2022-08-21T10:20:37;27.80;99.90
10051;DHT22;5065;46.942;7.432;2022-08-21T10:23:09;28.10;99.90
10051;DHT22;5065;46.942;7.432;2022-08-21T10:25:37;27.90;99.90
10051;DHT22;5065;46.942;7.432;2022-08-21T10:28:08;27.60;99.90
10051;DHT22;5065;46.942;7.432;2022-08-21T10:30:39;27.30;99.90
10051;DHT22;5065;46.942;7.432;2022-08-21T10:33:13;27.00;99.90
10051;DHT22;5065;46.942;7.432;2022-08-21T10:35:45;26.70;99.90
10051;DHT22;5065;46.942;7.432;2022-08-21T10:38:24;26.50;99.90
10051;DHT22;5065;46.942;7.432;2022-08-21T10:40:55;26.40;99.90
10051;DHT22;5065;46.942;7.432;2022-08-21T10:43:27;26.60;99.90
10051;DHT22;5065;46.942;7.432;2022-08-21T10:45:57;26.90;99.90
10051;DHT22;5065;46.942;7.432;2022-08-21T10:48:28;27.20;99.90
10051;DHT22;5065;46.942;7.432;2022-08-21T10:50:59;27.40;99.90
10051;DHT22;5065;46.942;7.432;2022-08-21T10:53:33;27.50;99.90
10051;DHT22;5065;46.942;7.432;2022-08-21T10:56:05;27.70;99.90
10051;DHT22;5065;46.942;7.432;2022-08-21T10:58:38;27.80;99.90
10051;DHT22;5065;46.942;7.432;2022-08-21T11:01:07;27.80;99.90
10051;DHT22;5065;46.942;7.432;2022-08-21T11:03:39;27.80;99.90
10051;DHT22;5065;46.942;7.432;2022-08-21T11:06:08;27.70;99.90
10051;DHT22;5065;46.942;7.432;2022-08-21T11:08:39;27.70;99.90
10051;DHT22;5065;46.942;7.432;2022-08-21T11:11:12;27.60;99.90
10051;DHT22;5065;46.942;7.432;2022-08-21T11:13:41;27.60;99.90
10051;DHT22;5065;46.942;7.432;2022-08-21T11:16:12;27.50;99.90
10051;DHT22;5065;46.942;7.432;2022-08-21T11:18:42;27.50;99.90
10051;DHT22;5065;46.942;7.432;2022-08-21T11:21:24;27.40;99.90
10051;DHT22;5065;46.942;7.432;2022-08-21T11:23:54;27.30;99.90
10051;DHT22;5065;46.942;7.432;2022-08-21T11:26:24;27.30;99.90
10051;DHT22;5065;46.942;7.432;2022-08-21T11:28:52;27.20;99.90
10051;DHT22;5065;46.942;7.432;2022-08-21T11:31:27;27.20;99.90
10051;DHT22;5065;46.942;7.432;2022-08-21T11:34:01;27.20;99.90
10051;DHT22;5065;46.942;7.432;2022-08-21T11:36:33;27.10;99.90
10051;DHT22;5065;46.942;7.432;2022-08-21T11:39:02;27.10;99.90
10051;DHT22;5065;46.942;7.432;2022-08-21T11:41:34;27.00;99.90
10051;DHT22;5065;46.942;7.432;2022-08-21T11:44:07;27.00;99.90
10051;DHT22;5065;46.942;7.432;2022-08-21T11:46:43;26.90;99.90
10051;DHT22;5065;46.942;7.432;2022-08-21T11:49:23;26.90;99.90
10051;DHT22;5065;46.942;7.432;2022-08-21T11:51:54;26.70;99.90
10051;DHT22;5065;46.942;7.432;2022-08-21T11:54:24;26.60;99.90
10051;DHT22;5065;46.942;7.432;2022-08-21T11:56:54;26.60;99.90
10051;DHT22;5065;46.942;7.432;2022-08-21T11:59:22;26.60;99.90
10051;DHT22;5065;46.942;7.432;2022-08-21T12:01:50;26.50;99.90
10051;DHT22;5065;46.942;7.432;2022-08-21T12:04:18;26.40;99.90
10051;DHT22;5065;46.942;7.432;2022-08-21T12:06:47;26.30;99.90
10051;DHT22;5065;46.942;7.432;2022-08-21T12:09:29;26.30;99.90
10051;DHT22;5065;46.942;7.432;2022-08-21T12:12:01;26.30;99.90
10051;DHT22;5065;46.942;7.432;2022-08-21T12:14:35;26.30;99.90
10051;DHT22;5065;46.942;7.432;2022-08-21T12:17:03;26.20;99.90
10051;DHT22;5065;46.942;7.432;2022-08-21T12:19:31;26.20;99.90
10051;DHT22;5065;46.942;7.432;2022-08-21T12:22:07;26.10;99.90
10051;DHT22;5065;46.942;7.432;2022-08-21T12:24:37;26.10;99.90
10051;DHT22;5065;46.942;7.432;2022-08-21T12:29:58;26.10;99.90
10051;DHT22;5065;46.942;7.432;2022-08-21T12:32:27;26.10;99.90
10051;DHT22;5065;46.942;7.432;2022-08-21T12:34:55;26.00;99.90
10051;DHT22;5065;46.942;7.432;2022-08-21T12:37:37;26.00;99.90
10051;DHT22;5065;46.942;7.432;2022-08-21T12:40:11;26.10;99.90
10051;DHT22;5065;46.942;7.432;2022-08-21T12:42:41;26.10;99.90
10051;DHT22;5065;46.942;7.432;2022-08-21T12:45:11;26.00;99.90
10051;DHT22;5065;46.942;7.432;2022-08-21T12:47:44;26.10;99.90
10051;DHT22;5065;46.942;7.432;2022-08-21T12:50:13;26.00;99.90
10051;DHT22;5065;46.942;7.432;2022-08-21T12:52:45;26.00;99.90
10051;DHT22;5065;46.942;7.432;2022-08-21T12:55:27;25.90;99.90
10051;DHT22;5065;46.942;7.432;2022-08-21T12:57:55;25.90;99.90
10051;DHT22;5065;46.942;7.432;2022-08-21T13:00:25;25.80;99.90
10051;DHT22;5065;46.942;7.432;2022-08-21T13:02:54;25.70;99.90
10051;DHT22;5065;46.942;7.432;2022-08-21T13:05:29;25.70;99.90
10051;DHT22;5065;46.942;7.432;2022-08-21T13:07:56;25.70;99.90
10051;DHT22;5065;46.942;7.432;2022-08-21T13:10:27;25.60;99.90
10051;DHT22;5065;46.942;7.432;2022-08-21T13:12:57;25.50;99.90
10051;DHT22;5065;46.942;7.432;2022-08-21T13:15:27;25.50;99.90
10051;DHT22;5065;46.942;7.432;2022-08-21T13:17:55;25.60;99.90
10051;DHT22;5065;46.942;7.432;2022-08-21T13:20:29;25.60;99.90
10051;DHT22;5065;46.942;7.432;2022-08-21T13:22:57;25.70;99.90
10051;DHT22;5065;46.942;7.432;2022-08-21T13:25:35;25.80;99.90
10051;DHT22;5065;46.942;7.432;2022-08-21T13:28:07;25.80;99.90
10051;DHT22;5065;46.942;7.432;2022-08-21T13:30:39;25.80;99.90
10051;DHT22;5065;46.942;7.432;2022-08-21T13:33:10;25.70;99.70
10051;DHT22;5065;46.942;7.432;2022-08-21T13:35:48;25.70;99.00
10051;DHT22;5065;46.942;7.432;2022-08-21T13:38:16;25.70;99.10
10051;DHT22;5065;46.942;7.432;2022-08-21T13:40:48;25.70;99.30
10051;DHT22;5065;46.942;7.432;2022-08-21T13:43:18;25.80;99.60
10051;DHT22;5065;46.942;7.432;2022-08-21T13:45:49;25.70;99.40
10051;DHT22;5065;46.942;7.432;2022-08-21T13:48:17;25.70;99.70
10051;DHT22;5065;46.942;7.432;2022-08-21T13:50:45;25.70;99.10
10051;DHT22;5065;46.942;7.432;2022-08-21T13:53:21;25.60;99.00
10051;DHT22;5065;46.942;7.432;2022-08-21T13:55:51;25.60;98.90
10051;DHT22;5065;46.942;7.432;2022-08-21T13:58:25;25.60;98.20
10051;DHT22;5065;46.942;7.432;2022-08-21T14:00:53;25.60;97.90
10051;DHT22;5065;46.942;7.432;2022-08-21T14:03:31;25.50;97.70
10051;DHT22;5065;46.942;7.432;2022-08-21T14:05:59;25.50;98.90
10051;DHT22;5065;46.942;7.432;2022-08-21T14:08:31;25.50;98.70
10051;DHT22;5065;46.942;7.432;2022-08-21T14:11:03;25.60;98.50
10051;DHT22;5065;46.942;7.432;2022-08-21T14:13:36;25.60;98.50
10051;DHT22;5065;46.942;7.432;2022-08-21T14:16:12;25.60;98.50
10051;DHT22;5065;46.942;7.432;2022-08-21T14:18:51;25.70;98.40
10051;DHT22;5065;46.942;7.432;2022-08-21T14:21:30;25.70;97.90
10051;DHT22;5065;46.942;7.432;2022-08-21T14:24:08;25.70;95.80
10051;DHT22;5065;46.942;7.432;2022-08-21T14:26:46;25.70;95.70
10051;DHT22;5065;46.942;7.432;2022-08-21T14:29:17;25.60;96.90
10051;DHT22;5065;46.942;7.432;2022-08-21T14:31:50;25.70;92.70
10051;DHT22;5065;46.942;7.432;2022-08-21T14:34:18;25.60;93.60
10051;DHT22;5065;46.942;7.432;2022-08-21T14:36:47;25.70;93.70
10051;DHT22;5065;46.942;7.432;2022-08-21T14:39:15;25.70;94.90
10051;DHT22;5065;46.942;7.432;2022-08-21T14:41:44;25.70;93.40
10051;DHT22;5065;46.942;7.432;2022-08-21T14:44:14;25.60;94.30
10051;DHT22;5065;46.942;7.432;2022-08-21T14:46:43;25.60;93.70
10051;DHT22;5065;46.942;7.432;2022-08-21T14:49:10;25.50;93.60
10051;DHT22;5065;46.942;7.432;2022-08-21T14:51:38;25.50;94.30
10051;DHT22;5065;46.942;7.432;2022-08-21T14:54:05;25.50;94.40
10051;DHT22;5065;46.942;7.432;2022-08-21T14:56:33;25.50;94.70
10051;DHT22;5065;46.942;7.432;2022-08-21T14:59:06;25.50;93.30
10051;DHT22;5065;46.942;7.432;2022-08-21T15:01:36;25.40;93.80
10051;DHT22;5065;46.942;7.432;2022-08-21T15:04:04;25.40;94.60
10051;DHT22;5065;46.942;7.432;2022-08-21T15:06:31;25.40;95.30
10051;DHT22;5065;46.942;7.432;2022-08-21T15:08:58;25.40;95.00
10051;DHT22;5065;46.942;7.432;2022-08-21T15:11:27;25.40;94.10
10051;DHT22;5065;46.942;7.432;2022-08-21T15:13:57;25.40;94.90
10051;DHT22;5065;46.942;7.432;2022-08-21T15:16:29;25.30;94.30
10051;DHT22;5065;46.942;7.432;2022-08-21T15:18:57;25.30;94.60
10051;DHT22;5065;46.942;7.432;2022-08-21T15:21:24;25.30;94.80
10051;DHT22;5065;46.942;7.432;2022-08-21T15:23:51;25.30;94.40
10051;DHT22;5065;46.942;7.432;2022-08-21T15:26:21;25.30;94.10
10051;DHT22;5065;46.942;7.432;2022-08-21T15:28:49;25.30;94.00
10051;DHT22;5065;46.942;7.432;2022-08-21T15:31:17;25.20;94.00
10051;DHT22;5065;46.942;7.432;2022-08-21T15:33:45;25.20;94.30
10051;DHT22;5065;46.942;7.432;2022-08-21T15:36:12;25.10;94.40
10051;DHT22;5065;46.942;7.432;2022-08-21T15:38:40;25.10;91.20
10051;DHT22;5065;46.942;7.432;2022-08-21T15:41:07;25.10;93.30
10051;DHT22;5065;46.942;7.432;2022-08-21T15:43:40;25.10;93.90
10051;DHT22;5065;46.942;7.432;2022-08-21T15:46:11;25.10;93.80
10051;DHT22;5065;46.942;7.432;2022-08-21T15:48:40;25.10;94.50
10051;DHT22;5065;46.942;7.432;2022-08-21T15:51:09;25.20;94.90
10051;DHT22;5065;46.942;7.432;2022-08-21T15:53:37;25.10;94.80
10051;DHT22;5065;46.942;7.432;2022-08-21T15:56:06;25.20;94.90
10051;DHT22;5065;46.942;7.432;2022-08-21T15:58:38;25.20;94.90
10051;DHT22;5065;46.942;7.432;2022-08-21T16:01:05;25.20;94.90